sensor_id;sensor_type;location;lat;lon;timestamp;temperature;humidity
15844;DHT22;50807;52.436;13.346;2022-12-18T00:00:03;0.50;83.30
15844;DHT22;50807;52.436;13.346;2022-12-18T00:00:39;0.50;83.30
15844;DHT22;50807;52.436;13.346;2022-12-18T00:01:15;0.50;83.20
15844;DHT22;50807;52.436;13.346;2022-12-18T00:01:48;0.40;83.30
15844;DHT22;50807;52.436;13.346;2022-12-18T00:02:19;0.40;83.20
15844;DHT22;50807;52.436;13.346;2022-12-18T00:02:50;0.40;83.20
15844;DHT22;50807;52.436;13.346;2022-12-18T00:03:21;0.40;83.20
15844;DHT22;50807;52.436;13.346;2022-12-18T00:03:52;0.40;83.30
15844;DHT22;50807;52.436;13.346;2022-12-18T00:04:25;0.40;83.30
15844;DHT22;50807;52.436;13.346;2022-12-18T00:04:58;0.40;83.40
15844;DHT22;50807;52.436;13.346;2022-12-18T00:05:29;0.40;83.40
15844;DHT22;50807;52.436;13.346;2022-12-18T00:06:01;0.30;83.40
15844;DHT22;50807;52.436;13.346;2022-12-18T00:06:33;0.30;83.50
15844;DHT22;50807;52.436;13.346;2022-12-18T00:07:06;0.30;83.50
15844;DHT22;50807;52.436;13.346;2022-12-18T00:07:37;0.30;83.50
15844;DHT22;50807;52.436;13.346;2022-12-18T00:08:09;0.30;83.50
15844;DHT22;50807;52.436;13.346;2022-12-18T00:08:39;0.30;83.40
15844;DHT22;50807;52.436;13.346;2022-12-18T00:09:10;0.30;83.50
15844;DHT22;50807;52.436;13.346;2022-12-18T00:09:41;0.30;83.40
15844;DHT22;50807;52.436;13.346;2022-12-18T00:10:13;0.30;83.50
15844;DHT22;50807;52.436;13.346;2022-12-18T00:10:44;0.30;83.40
15844;DHT22;50807;52.436;13.346;2022-12-18T00:11:16;0.30;83.50
15844;DHT22;50807;52.436;13.346;2022-12-18T00:11:48;0.30;83.50
15844;DHT22;50807;52.436;13.346;2022-12-18T00:12:20;0.30;83.50
15844;DHT22;50807;52.436;13.346;2022-12-18T00:12:51;0.30;83.50
15844;DHT22;50807;52.436;13.346;2022-12-18T00:13:22;0.30;84.20
15844;DHT22;50807;52.436;13.346;2022-12-18T00:13:55;0.20;83.60
15844;DHT22;50807;52.436;13.346;2022-12-18T00:14:27;0.20;83.70
15844;DHT22;50807;52.436;13.346;2022-12-18T00:14:58;0.20;83.60
15844;DHT22;50807;52.436;13.346;2022-12-18T00:15:30;0.30;83.70
15844;DHT22;50807;52.436;13.346;2022-12-18T00:16:01;0.20;83.80
15844;DHT22;50807;52.436;13.346;2022-12-18T00:16:33;0.20;83.80
15844;DHT22;50807;52.436;13.346;2022-12-18T00:17:05;0.20;83.80
15844;DHT22;50807;52.436;13.346;2022-12-18T00:17:37;0.20;84.60
15844;DHT22;50807;52.436;13.346;2022-12-18T00:18:08;0.20;83.90
15844;DHT22;50807;52.436;13.346;2022-12-18T00:18:39;0.20;83.90
15844;DHT22;50807;52.436;13.346;2022-12-18T00:19:12;0.20;83.90
15844;DHT22;50807;52.436;13.346;2022-12-18T00:19:43;0.20;84.00
15844;DHT22;50807;52.436;13.346;2022-12-18T00:20:15;0.20;84.00
15844;DHT22;50807;52.436;13.346;2022-12-18T00:20:51;0.20;83.90
15844;DHT22;50807;52.436;13.346;2022-12-18T00:21:22;0.20;83.90
15844;DHT22;50807;52.436;13.346;2022-12-18T00:21:54;0.20;83.90
15844;DHT22;50807;52.436;13.346;2022-12-18T00:22:26;0.20;83.90
15844;DHT22;50807;52.436;13.346;2022-12-18T00:22:57;0.20;83.90
15844;DHT22;50807;52.436;13.346;2022-12-18T00:23:29;0.20;83.90
15844;DHT22;50807;52.436;13.346;2022-12-18T00:24:00;0.20;84.00
15844;DHT22;50807;52.436;13.346;2022-12-18T00:24:31;0.20;83.90
15844;DHT22;50807;52.436;13.346;2022-12-18T00:25:04;0.20;84.00
15844;DHT22;50807;52.436;13.346;2022-12-18T00:25:35;0.20;84.00
15844;DHT22;50807;52.436;13.346;2022-12-18T00:26:09;0.20;84.00
15844;DHT22;50807;52.436;13.346;2022-12-18T00:26:42;0.20;84.10
15844;DHT22;50807;52.436;13.346;2022-12-18T00:27:13;0.20;83.90
15844;DHT22;50807;52.436;13.346;2022-12-18T00:27:44;0.20;84.00
15844;DHT22;50807;52.436;13.346;2022-12-18T00:28:15;0.20;84.00
15844;DHT22;50807;52.436;13.346;2022-12-18T00:28:46;0.20;84.00
15844;DHT22;50807;52.436;13.346;2022-12-18T00:29:18;0.20;84.00
15844;DHT22;50807;52.436;13.346;2022-12-18T00:29:49;0.20;84.00
15844;DHT22;50807;52.436;13.346;2022-12-18T00:30:20;0.20;83.90
15844;DHT22;50807;52.436;13.346;2022-12-18T00:30:59;0.20;83.80
15844;DHT22;50807;52.436;13.346;2022-12-18T00:31:32;0.20;83.80
15844;DHT22;50807;52.436;13.346;2022-12-18T00:32:04;0.20;83.80
15844;DHT22;50807;52.436;13.346;2022-12-18T00:32:35;0.20;83.60
15844;DHT22;50807;52.436;13.346;2022-12-18T00:33:06;0.20;83.60
15844;DHT22;50807;52.436;13.346;2022-12-18T00:33:38;0.20;83.60
15844;DHT22;50807;52.436;13.346;2022-12-18T00:34:10;0.20;83.60
15844;DHT22;50807;52.436;13.346;2022-12-18T00:34:42;0.20;83.60
15844;DHT22;50807;52.436;13.346;2022-12-18T00:35:14;0.10;83.60
15844;DHT22;50807;52.436;13.346;2022-12-18T00:35:45;0.10;83.60
15844;DHT22;50807;52.436;13.346;2022-12-18T00:36:17;0.10;83.60
15844;DHT22;50807;52.436;13.346;2022-12-18T00:36:50;0.10;83.70
15844;DHT22;50807;52.436;13.346;2022-12-18T00:37:21;0.10;83.60
15844;DHT22;50807;52.436;13.346;2022-12-18T00:37:53;0.10;83.60
15844;DHT22;50807;52.436;13.346;2022-12-18T00:38:24;0.10;83.70
15844;DHT22;50807;52.436;13.346;2022-12-18T00:38:56;0.10;83.70
15844;DHT22;50807;52.436;13.346;2022-12-18T00:39:29;0.10;83.80
15844;DHT22;50807;52.436;13.346;2022-12-18T00:40:00;0.10;83.70
15844;DHT22;50807;52.436;13.346;2022-12-18T00:40:31;0.10;83.80
15844;DHT22;50807;52.436;13.346;2022-12-18T00:41:04;0.10;83.80
15844;DHT22;50807;52.436;13.346;2022-12-18T00:41:35;0.10;83.80
15844;DHT22;50807;52.436;13.346;2022-12-18T00:42:24;0.10;83.90
15844;DHT22;50807;52.436;13.346;2022-12-18T00:43:14;0.10;84.60
15844;DHT22;50807;52.436;13.346;2022-12-18T00:43:45;0.10;83.90
15844;DHT22;50807;52.436;13.346;2022-12-18T00:44:17;0.10;83.80
15844;DHT22;50807;52.436;13.346;2022-12-18T00:44:50;0.10;83.80
15844;DHT22;50807;52.436;13.346;2022-12-18T00:45:21;0.10;83.80
15844;DHT22;50807;52.436;13.346;2022-12-18T00:45:54;0.10;83.80
15844;DHT22;50807;52.436;13.346;2022-12-18T00:46:26;0.10;83.80
15844;DHT22;50807;52.436;13.346;2022-12-18T00:46:57;0.10;83.80
15844;DHT22;50807;52.436;13.346;2022-12-18T00:47:28;0.10;83.80
15844;DHT22;50807;52.436;13.346;2022-12-18T00:47:59;0.10;83.80
15844;DHT22;50807;52.436;13.346;2022-12-18T00:48:30;0.10;83.90
15844;DHT22;50807;52.436;13.346;2022-12-18T00:49:02;0.10;84.00
15844;DHT22;50807;52.436;13.346;2022-12-18T00:49:33;0.10;84.10
15844;DHT22;50807;52.436;13.346;2022-12-18T00:50:06;0.10;84.00
15844;DHT22;50807;52.436;13.346;2022-12-18T00:50:37;0.10;84.10
15844;DHT22;50807;52.436;13.346;2022-12-18T00:51:08;0.10;84.10
15844;DHT22;50807;52.436;13.346;2022-12-18T00:51:39;0.10;84.00
15844;DHT22;50807;52.436;13.346;2022-12-18T00:52:11;0.10;84.00
15844;DHT22;50807;52.436;13.346;2022-12-18T00:52:42;0.10;84.10
15844;DHT22;50807;52.436;13.346;2022-12-18T00:53:15;0.10;84.10
15844;DHT22;50807;52.436;13.346;2022-12-18T00:53:47;0.10;84.10
15844;DHT22;50807;52.436;13.346;2022-12-18T00:54:18;0.10;84.10
15844;DHT22;50807;52.436;13.346;2022-12-18T00:54:48;0.10;84.10
15844;DHT22;50807;52.436;13.346;2022-12-18T00:55:19;0.10;84.00
15844;DHT22;50807;52.436;13.346;2022-12-18T00:55:51;0.10;83.90
15844;DHT22;50807;52.436;13.346;2022-12-18T00:56:22;0.10;84.00
15844;DHT22;50807;52.436;13.346;2022-12-18T00:56:53;0.10;83.90
15844;DHT22;50807;52.436;13.346;2022-12-18T00:57:25;0.10;83.90
15844;DHT22;50807;52.436;13.346;2022-12-18T00:57:56;0.00;83.90
15844;DHT22;50807;52.436;13.346;2022-12-18T00:58:26;0.00;83.90
15844;DHT22;50807;52.436;13.346;2022-12-18T00:58:58;0.00;83.90
15844;DHT22;50807;52.436;13.346;2022-12-18T00:59:29;0.00;83.90
15844;DHT22;50807;52.436;13.346;2022-12-18T01:00:00;0.00;84.00
15844;DHT22;50807;52.436;13.346;2022-12-18T01:00:32;0.00;84.00
15844;DHT22;50807;52.436;13.346;2022-12-18T01:01:03;0.00;84.00
15844;DHT22;50807;52.436;13.346;2022-12-18T01:01:35;0.00;84.00
15844;DHT22;50807;52.436;13.346;2022-12-18T01:02:06;0.00;84.00
15844;DHT22;50807;52.436;13.346;2022-12-18T01:02:37;0.00;84.00
15844;DHT22;50807;52.436;13.346;2022-12-18T01:03:10;0.00;84.00
15844;DHT22;50807;52.436;13.346;2022-12-18T01:03:43;0.00;84.10
15844;DHT22;50807;52.436;13.346;2022-12-18T01:04:15;0.00;84.10
15844;DHT22;50807;52.436;13.346;2022-12-18T01:04:46;0.00;84.10
15844;DHT22;50807;52.436;13.346;2022-12-18T01:05:17;0.00;84.10
15844;DHT22;50807;52.436;13.346;2022-12-18T01:05:48;0.00;84.80
15844;DHT22;50807;52.436;13.346;2022-12-18T01:06:19;0.00;84.00
15844;DHT22;50807;52.436;13.346;2022-12-18T01:06:50;0.00;84.00
15844;DHT22;50807;52.436;13.346;2022-12-18T01:07:22;0.00;84.10
15844;DHT22;50807;52.436;13.346;2022-12-18T01:07:53;0.00;84.10
15844;DHT22;50807;52.436;13.346;2022-12-18T01:08:25;0.00;84.10
15844;DHT22;50807;52.436;13.346;2022-12-18T01:08:56;0.00;84.10
15844;DHT22;50807;52.436;13.346;2022-12-18T01:09:28;0.00;84.20
15844;DHT22;50807;52.436;13.346;2022-12-18T01:09:59;0.00;84.20
15844;DHT22;50807;52.436;13.346;2022-12-18T01:10:29;0.00;84.20
15844;DHT22;50807;52.436;13.346;2022-12-18T01:11:07;0.00;84.20
15844;DHT22;50807;52.436;13.346;2022-12-18T01:11:39;0.00;84.30
15844;DHT22;50807;52.436;13.346;2022-12-18T01:12:10;0.00;84.30
15844;DHT22;50807;52.436;13.346;2022-12-18T01:12:41;0.00;84.20
15844;DHT22;50807;52.436;13.346;2022-12-18T01:13:12;0.00;84.20
15844;DHT22;50807;52.436;13.346;2022-12-18T01:13:44;0.00;84.20
15844;DHT22;50807;52.436;13.346;2022-12-18T01:14:15;0.00;84.20
15844;DHT22;50807;52.436;13.346;2022-12-18T01:14:47;0.00;84.20
15844;DHT22;50807;52.436;13.346;2022-12-18T01:15:19;0.00;84.20
15844;DHT22;50807;52.436;13.346;2022-12-18T01:15:50;0.00;84.20
15844;DHT22;50807;52.436;13.346;2022-12-18T01:16:22;0.00;84.20
15844;DHT22;50807;52.436;13.346;2022-12-18T01:16:53;0.00;84.20
15844;DHT22;50807;52.436;13.346;2022-12-18T01:17:24;0.00;84.20
15844;DHT22;50807;52.436;13.346;2022-12-18T01:17:56;0.00;84.20
15844;DHT22;50807;52.436;13.346;2022-12-18T01:18:27;0.00;84.20
15844;DHT22;50807;52.436;13.346;2022-12-18T01:18:58;0.00;84.20
15844;DHT22;50807;52.436;13.346;2022-12-18T01:19:29;0.00;84.20
15844;DHT22;50807;52.436;13.346;2022-12-18T01:20:00;0.00;84.20
15844;DHT22;50807;52.436;13.346;2022-12-18T01:20:31;0.00;84.20
15844;DHT22;50807;52.436;13.346;2022-12-18T01:21:06;0.00;84.20
15844;DHT22;50807;52.436;13.346;2022-12-18T01:21:37;0.00;85.00
15844;DHT22;50807;52.436;13.346;2022-12-18T01:22:08;0.00;84.20
15844;DHT22;50807;52.436;13.346;2022-12-18T01:22:40;0.00;84.20
15844;DHT22;50807;52.436;13.346;2022-12-18T01:23:11;0.00;84.20
15844;DHT22;50807;52.436;13.346;2022-12-18T01:23:43;0.00;84.10
15844;DHT22;50807;52.436;13.346;2022-12-18T01:24:13;0.00;84.20
15844;DHT22;50807;52.436;13.346;2022-12-18T01:24:45;0.00;84.10
15844;DHT22;50807;52.436;13.346;2022-12-18T01:25:16;0.00;84.10
15844;DHT22;50807;52.436;13.346;2022-12-18T01:25:47;0.00;84.10
15844;DHT22;50807;52.436;13.346;2022-12-18T01:26:18;0.00;84.10
15844;DHT22;50807;52.436;13.346;2022-12-18T01:26:50;0.00;84.20
15844;DHT22;50807;52.436;13.346;2022-12-18T01:27:21;0.00;84.10
15844;DHT22;50807;52.436;13.346;2022-12-18T01:27:52;0.00;84.20
15844;DHT22;50807;52.436;13.346;2022-12-18T01:28:23;0.00;84.20
15844;DHT22;50807;52.436;13.346;2022-12-18T01:28:55;0.00;84.20
15844;DHT22;50807;52.436;13.346;2022-12-18T01:29:27;0.00;84.20
15844;DHT22;50807;52.436;13.346;2022-12-18T01:29:59;0.00;84.20
15844;DHT22;50807;52.436;13.346;2022-12-18T01:30:29;0.00;84.20
15844;DHT22;50807;52.436;13.346;2022-12-18T01:31:13;0.00;84.20
15844;DHT22;50807;52.436;13.346;2022-12-18T01:31:46;0.00;84.30
15844;DHT22;50807;52.436;13.346;2022-12-18T01:32:17;0.00;84.20
15844;DHT22;50807;52.436;13.346;2022-12-18T01:32:48;0.00;84.20
15844;DHT22;50807;52.436;13.346;2022-12-18T01:33:20;0.00;84.20
15844;DHT22;50807;52.436;13.346;2022-12-18T01:33:51;0.00;84.10
15844;DHT22;50807;52.436;13.346;2022-12-18T01:34:23;0.00;84.20
15844;DHT22;50807;52.436;13.346;2022-12-18T01:34:54;0.00;84.10
15844;DHT22;50807;52.436;13.346;2022-12-18T01:35:25;0.00;84.10
15844;DHT22;50807;52.436;13.346;2022-12-18T01:35:56;-0.10;84.00
15844;DHT22;50807;52.436;13.346;2022-12-18T01:36:28;0.00;84.00
15844;DHT22;50807;52.436;13.346;2022-12-18T01:37:02;-0.10;84.10
15844;DHT22;50807;52.436;13.346;2022-12-18T01:37:33;-0.10;84.00
15844;DHT22;50807;52.436;13.346;2022-12-18T01:38:04;-0.10;83.90
15844;DHT22;50807;52.436;13.346;2022-12-18T01:38:35;-0.10;83.90
15844;DHT22;50807;52.436;13.346;2022-12-18T01:39:11;-0.10;83.90
15844;DHT22;50807;52.436;13.346;2022-12-18T01:39:44;-0.10;84.00
15844;DHT22;50807;52.436;13.346;2022-12-18T01:40:15;-0.10;84.00
15844;DHT22;50807;52.436;13.346;2022-12-18T01:40:47;-0.10;84.00
15844;DHT22;50807;52.436;13.346;2022-12-18T01:41:20;-0.10;84.00
15844;DHT22;50807;52.436;13.346;2022-12-18T01:41:53;-0.10;84.10
15844;DHT22;50807;52.436;13.346;2022-12-18T01:42:33;-0.10;84.10
15844;DHT22;50807;52.436;13.346;2022-12-18T01:43:05;-0.10;84.10
15844;DHT22;50807;52.436;13.346;2022-12-18T01:43:47;-0.10;84.10
15844;DHT22;50807;52.436;13.346;2022-12-18T01:44:51;-0.10;84.10
15844;DHT22;50807;52.436;13.346;2022-12-18T01:45:27;-0.10;84.40
15844;DHT22;50807;52.436;13.346;2022-12-18T01:45:59;-0.10;84.20
15844;DHT22;50807;52.436;13.346;2022-12-18T01:46:30;-0.10;84.10
15844;DHT22;50807;52.436;13.346;2022-12-18T01:47:02;-0.10;84.00
15844;DHT22;50807;52.436;13.346;2022-12-18T01:47:38;-0.10;84.00
15844;DHT22;50807;52.436;13.346;2022-12-18T01:48:11;-0.10;84.10
15844;DHT22;50807;52.436;13.346;2022-12-18T01:48:44;-0.10;84.00
15844;DHT22;50807;52.436;13.346;2022-12-18T01:49:18;-0.10;84.10
15844;DHT22;50807;52.436;13.346;2022-12-18T01:49:49;-0.10;84.10
15844;DHT22;50807;52.436;13.346;2022-12-18T01:50:24;-0.10;84.10
15844;DHT22;50807;52.436;13.346;2022-12-18T01:51:00;-0.10;84.10
15844;DHT22;50807;52.436;13.346;2022-12-18T01:51:31;-0.10;84.20
15844;DHT22;50807;52.436;13.346;2022-12-18T01:52:02;-0.10;84.10
15844;DHT22;50807;52.436;13.346;2022-12-18T01:52:33;-0.10;84.20
15844;DHT22;50807;52.436;13.346;2022-12-18T01:53:10;-0.10;84.30
15844;DHT22;50807;52.436;13.346;2022-12-18T01:53:44;-0.10;84.30
15844;DHT22;50807;52.436;13.346;2022-12-18T01:54:17;-0.10;84.30
15844;DHT22;50807;52.436;13.346;2022-12-18T01:54:50;-0.10;84.30
15844;DHT22;50807;52.436;13.346;2022-12-18T01:55:25;-0.10;84.40
15844;DHT22;50807;52.436;13.346;2022-12-18T01:55:59;-0.10;84.40
15844;DHT22;50807;52.436;13.346;2022-12-18T01:56:31;-0.10;84.40
15844;DHT22;50807;52.436;13.346;2022-12-18T01:57:02;-0.10;84.40
15844;DHT22;50807;52.436;13.346;2022-12-18T01:57:33;-0.10;84.40
15844;DHT22;50807;52.436;13.346;2022-12-18T01:58:05;-0.10;84.40
15844;DHT22;50807;52.436;13.346;2022-12-18T01:58:41;-0.10;84.40
15844;DHT22;50807;52.436;13.346;2022-12-18T01:59:18;-0.10;84.40
15844;DHT22;50807;52.436;13.346;2022-12-18T01:59:52;-0.10;84.40
15844;DHT22;50807;52.436;13.346;2022-12-18T02:00:26;-0.10;84.30
15844;DHT22;50807;52.436;13.346;2022-12-18T02:00:59;-0.10;84.30
15844;DHT22;50807;52.436;13.346;2022-12-18T02:01:30;-0.10;84.30
15844;DHT22;50807;52.436;13.346;2022-12-18T02:02:03;-0.10;84.30
15844;DHT22;50807;52.436;13.346;2022-12-18T02:02:34;-0.10;84.30
15844;DHT22;50807;52.436;13.346;2022-12-18T02:03:05;-0.10;84.30
15844;DHT22;50807;52.436;13.346;2022-12-18T02:03:40;0.00;84.30
15844;DHT22;50807;52.436;13.346;2022-12-18T02:04:20;-0.10;84.30
15844;DHT22;50807;52.436;13.346;2022-12-18T02:04:51;-0.10;84.40
15844;DHT22;50807;52.436;13.346;2022-12-18T02:05:31;0.00;84.30
15844;DHT22;50807;52.436;13.346;2022-12-18T02:06:14;0.00;84.40
15844;DHT22;50807;52.436;13.346;2022-12-18T02:06:51;0.00;84.30
15844;DHT22;50807;52.436;13.346;2022-12-18T02:07:34;0.00;84.20
15844;DHT22;50807;52.436;13.346;2022-12-18T02:08:16;0.00;84.20
15844;DHT22;50807;52.436;13.346;2022-12-18T02:09:00;0.00;84.10
15844;DHT22;50807;52.436;13.346;2022-12-18T02:09:44;0.00;84.00
15844;DHT22;50807;52.436;13.346;2022-12-18T02:10:23;0.00;84.00
15844;DHT22;50807;52.436;13.346;2022-12-18T02:11:05;0.00;83.90
15844;DHT22;50807;52.436;13.346;2022-12-18T02:11:47;0.00;83.90
15844;DHT22;50807;52.436;13.346;2022-12-18T02:12:26;0.00;83.80
15844;DHT22;50807;52.436;13.346;2022-12-18T02:13:12;0.00;83.80
15844;DHT22;50807;52.436;13.346;2022-12-18T02:13:52;0.00;83.80
15844;DHT22;50807;52.436;13.346;2022-12-18T02:14:38;0.00;83.80
15844;DHT22;50807;52.436;13.346;2022-12-18T02:15:17;0.00;83.70
15844;DHT22;50807;52.436;13.346;2022-12-18T02:15:58;0.00;83.70
15844;DHT22;50807;52.436;13.346;2022-12-18T02:16:40;0.00;83.50
15844;DHT22;50807;52.436;13.346;2022-12-18T02:17:18;0.00;83.50
15844;DHT22;50807;52.436;13.346;2022-12-18T02:17:56;0.00;83.50
15844;DHT22;50807;52.436;13.346;2022-12-18T02:18:35;0.00;83.50
15844;DHT22;50807;52.436;13.346;2022-12-18T02:19:32;-0.10;83.40
15844;DHT22;50807;52.436;13.346;2022-12-18T02:20:22;-0.10;83.50
15844;DHT22;50807;52.436;13.346;2022-12-18T02:21:04;-0.10;83.60
15844;DHT22;50807;52.436;13.346;2022-12-18T02:21:48;0.00;83.50
15844;DHT22;50807;52.436;13.346;2022-12-18T02:22:29;-0.10;83.40
15844;DHT22;50807;52.436;13.346;2022-12-18T02:23:15;-0.10;83.40
15844;DHT22;50807;52.436;13.346;2022-12-18T02:24:04;-0.10;83.30
15844;DHT22;50807;52.436;13.346;2022-12-18T02:24:58;-0.10;83.30
15844;DHT22;50807;52.436;13.346;2022-12-18T02:26:45;-0.10;83.40
15844;DHT22;50807;52.436;13.346;2022-12-18T02:27:19;-0.10;83.40
15844;DHT22;50807;52.436;13.346;2022-12-18T02:27:51;-0.10;83.30
15844;DHT22;50807;52.436;13.346;2022-12-18T02:28:29;-0.10;83.30
15844;DHT22;50807;52.436;13.346;2022-12-18T02:29:04;-0.10;83.30
15844;DHT22;50807;52.436;13.346;2022-12-18T02:29:45;-0.10;83.30
15844;DHT22;50807;52.436;13.346;2022-12-18T02:30:20;-0.10;83.30
15844;DHT22;50807;52.436;13.346;2022-12-18T02:30:53;-0.10;83.30
15844;DHT22;50807;52.436;13.346;2022-12-18T02:31:35;-0.10;83.40
15844;DHT22;50807;52.436;13.346;2022-12-18T02:32:14;-0.20;83.30
15844;DHT22;50807;52.436;13.346;2022-12-18T02:32:50;-0.20;83.40
15844;DHT22;50807;52.436;13.346;2022-12-18T02:33:25;-0.20;83.40
15844;DHT22;50807;52.436;13.346;2022-12-18T02:34:01;-0.20;83.50
15844;DHT22;50807;52.436;13.346;2022-12-18T02:34:38;-0.20;83.50
15844;DHT22;50807;52.436;13.346;2022-12-18T02:35:13;-0.20;83.50
15844;DHT22;50807;52.436;13.346;2022-12-18T02:35:48;-0.20;83.60
15844;DHT22;50807;52.436;13.346;2022-12-18T02:36:22;-0.20;83.60
15844;DHT22;50807;52.436;13.346;2022-12-18T02:36:54;-0.20;83.60
15844;DHT22;50807;52.436;13.346;2022-12-18T02:37:28;-0.20;83.60
15844;DHT22;50807;52.436;13.346;2022-12-18T02:38:03;-0.20;83.70
15844;DHT22;50807;52.436;13.346;2022-12-18T02:38:35;-0.20;83.70
15844;DHT22;50807;52.436;13.346;2022-12-18T02:39:09;-0.20;83.70
15844;DHT22;50807;52.436;13.346;2022-12-18T02:39:44;-0.20;83.80
15844;DHT22;50807;52.436;13.346;2022-12-18T02:40:19;-0.20;83.80
15844;DHT22;50807;52.436;13.346;2022-12-18T02:40:53;-0.20;83.80
15844;DHT22;50807;52.436;13.346;2022-12-18T02:41:28;-0.20;83.90
15844;DHT22;50807;52.436;13.346;2022-12-18T02:42:01;-0.20;83.90
15844;DHT22;50807;52.436;13.346;2022-12-18T02:42:38;-0.30;83.80
15844;DHT22;50807;52.436;13.346;2022-12-18T02:43:13;-0.30;83.80
15844;DHT22;50807;52.436;13.346;2022-12-18T02:43:48;-0.30;83.80
15844;DHT22;50807;52.436;13.346;2022-12-18T02:44:23;-0.30;83.80
15844;DHT22;50807;52.436;13.346;2022-12-18T02:44:55;-0.30;83.70
15844;DHT22;50807;52.436;13.346;2022-12-18T02:45:26;-0.30;83.70
15844;DHT22;50807;52.436;13.346;2022-12-18T02:46:00;-0.30;83.70
15844;DHT22;50807;52.436;13.346;2022-12-18T02:46:56;-0.30;83.70
15844;DHT22;50807;52.436;13.346;2022-12-18T02:47:29;-0.30;83.60
15844;DHT22;50807;52.436;13.346;2022-12-18T02:48:04;-0.30;83.60
15844;DHT22;50807;52.436;13.346;2022-12-18T02:48:35;-0.30;83.50
15844;DHT22;50807;52.436;13.346;2022-12-18T02:49:21;-0.30;83.40
15844;DHT22;50807;52.436;13.346;2022-12-18T02:50:05;-0.30;83.50
15844;DHT22;50807;52.436;13.346;2022-12-18T02:50:47;-0.30;83.50
15844;DHT22;50807;52.436;13.346;2022-12-18T02:51:33;-0.30;83.40
15844;DHT22;50807;52.436;13.346;2022-12-18T02:52:25;-0.30;83.40
15844;DHT22;50807;52.436;13.346;2022-12-18T02:53:10;-0.30;83.40
15844;DHT22;50807;52.436;13.346;2022-12-18T02:53:52;-0.30;83.40
15844;DHT22;50807;52.436;13.346;2022-12-18T02:54:41;-0.30;83.30
15844;DHT22;50807;52.436;13.346;2022-12-18T02:55:31;-0.40;83.30
15844;DHT22;50807;52.436;13.346;2022-12-18T02:56:13;-0.40;83.30
15844;DHT22;50807;52.436;13.346;2022-12-18T02:56:55;-0.40;83.30
15844;DHT22;50807;52.436;13.346;2022-12-18T02:57:34;-0.40;83.30
15844;DHT22;50807;52.436;13.346;2022-12-18T02:58:15;-0.40;83.30
15844;DHT22;50807;52.436;13.346;2022-12-18T02:58:57;-0.40;83.30
15844;DHT22;50807;52.436;13.346;2022-12-18T02:59:34;-0.40;83.30
15844;DHT22;50807;52.436;13.346;2022-12-18T03:00:14;-0.40;83.30
15844;DHT22;50807;52.436;13.346;2022-12-18T03:00:52;-0.40;83.30
15844;DHT22;50807;52.436;13.346;2022-12-18T03:01:35;-0.40;83.30
15844;DHT22;50807;52.436;13.346;2022-12-18T03:02:19;-0.40;83.40
15844;DHT22;50807;52.436;13.346;2022-12-18T03:02:59;-0.40;83.40
15844;DHT22;50807;52.436;13.346;2022-12-18T03:03:38;-0.40;83.40
15844;DHT22;50807;52.436;13.346;2022-12-18T03:04:16;-0.40;83.40
15844;DHT22;50807;52.436;13.346;2022-12-18T03:04:56;-0.40;83.40
15844;DHT22;50807;52.436;13.346;2022-12-18T03:05:33;-0.40;83.60
15844;DHT22;50807;52.436;13.346;2022-12-18T03:06:12;-0.40;83.60
15844;DHT22;50807;52.436;13.346;2022-12-18T03:06:50;-0.40;83.70
15844;DHT22;50807;52.436;13.346;2022-12-18T03:07:37;-0.50;83.70
15844;DHT22;50807;52.436;13.346;2022-12-18T03:08:14;-0.40;83.80
15844;DHT22;50807;52.436;13.346;2022-12-18T03:08:52;-0.40;83.90
15844;DHT22;50807;52.436;13.346;2022-12-18T03:09:29;-0.40;83.80
15844;DHT22;50807;52.436;13.346;2022-12-18T03:10:06;-0.40;83.90
15844;DHT22;50807;52.436;13.346;2022-12-18T03:10:43;-0.40;83.90
15844;DHT22;50807;52.436;13.346;2022-12-18T03:11:19;-0.40;83.90
15844;DHT22;50807;52.436;13.346;2022-12-18T03:12:17;-0.40;83.90
15844;DHT22;50807;52.436;13.346;2022-12-18T03:12:58;-0.40;84.00
15844;DHT22;50807;52.436;13.346;2022-12-18T03:13:36;-0.40;84.00
15844;DHT22;50807;52.436;13.346;2022-12-18T03:14:13;-0.40;83.90
15844;DHT22;50807;52.436;13.346;2022-12-18T03:14:49;-0.40;83.90
15844;DHT22;50807;52.436;13.346;2022-12-18T03:15:28;-0.40;83.90
15844;DHT22;50807;52.436;13.346;2022-12-18T03:16:06;-0.40;83.90
15844;DHT22;50807;52.436;13.346;2022-12-18T03:16:41;-0.40;83.90
15844;DHT22;50807;52.436;13.346;2022-12-18T03:17:16;-0.40;83.90
15844;DHT22;50807;52.436;13.346;2022-12-18T03:17:55;-0.40;83.90
15844;DHT22;50807;52.436;13.346;2022-12-18T03:18:33;-0.40;83.80
15844;DHT22;50807;52.436;13.346;2022-12-18T03:19:10;-0.40;84.20
15844;DHT22;50807;52.436;13.346;2022-12-18T03:19:46;-0.40;84.00
15844;DHT22;50807;52.436;13.346;2022-12-18T03:20:21;-0.40;84.00
15844;DHT22;50807;52.436;13.346;2022-12-18T03:20:56;-0.40;84.00
15844;DHT22;50807;52.436;13.346;2022-12-18T03:21:34;-0.40;84.10
15844;DHT22;50807;52.436;13.346;2022-12-18T03:22:09;-0.40;84.20
15844;DHT22;50807;52.436;13.346;2022-12-18T03:22:41;-0.40;84.20
15844;DHT22;50807;52.436;13.346;2022-12-18T03:23:18;-0.40;84.20
15844;DHT22;50807;52.436;13.346;2022-12-18T03:23:53;-0.40;84.20
15844;DHT22;50807;52.436;13.346;2022-12-18T03:24:26;-0.40;84.20
15844;DHT22;50807;52.436;13.346;2022-12-18T03:25:04;-0.40;84.60
15844;DHT22;50807;52.436;13.346;2022-12-18T03:25:40;-0.40;84.30
15844;DHT22;50807;52.436;13.346;2022-12-18T03:26:16;-0.40;84.30
15844;DHT22;50807;52.436;13.346;2022-12-18T03:26:53;-0.40;84.20
15844;DHT22;50807;52.436;13.346;2022-12-18T03:27:31;-0.40;84.20
15844;DHT22;50807;52.436;13.346;2022-12-18T03:28:05;-0.40;84.20
15844;DHT22;50807;52.436;13.346;2022-12-18T03:28:45;-0.40;84.20
15844;DHT22;50807;52.436;13.346;2022-12-18T03:29:25;-0.40;84.20
15844;DHT22;50807;52.436;13.346;2022-12-18T03:30:02;-0.40;84.20
15844;DHT22;50807;52.436;13.346;2022-12-18T03:30:38;-0.40;84.10
15844;DHT22;50807;52.436;13.346;2022-12-18T03:31:14;-0.40;84.00
15844;DHT22;50807;52.436;13.346;2022-12-18T03:31:49;-0.40;84.00
15844;DHT22;50807;52.436;13.346;2022-12-18T03:32:27;-0.40;84.00
15844;DHT22;50807;52.436;13.346;2022-12-18T03:33:05;-0.40;84.00
15844;DHT22;50807;52.436;13.346;2022-12-18T03:33:42;-0.40;84.00
15844;DHT22;50807;52.436;13.346;2022-12-18T03:34:21;-0.40;84.00
15844;DHT22;50807;52.436;13.346;2022-12-18T03:34:59;-0.40;84.00
15844;DHT22;50807;52.436;13.346;2022-12-18T03:35:38;-0.40;84.00
15844;DHT22;50807;52.436;13.346;2022-12-18T03:36:11;-0.40;84.00
15844;DHT22;50807;52.436;13.346;2022-12-18T03:36:43;-0.40;84.00
15844;DHT22;50807;52.436;13.346;2022-12-18T03:37:14;-0.40;84.00
15844;DHT22;50807;52.436;13.346;2022-12-18T03:37:45;-0.40;84.00
15844;DHT22;50807;52.436;13.346;2022-12-18T03:38:16;-0.40;84.00
15844;DHT22;50807;52.436;13.346;2022-12-18T03:38:48;-0.40;84.10
15844;DHT22;50807;52.436;13.346;2022-12-18T03:39:19;-0.40;84.10